sensor_id;sensor_type;location;lat;lon;timestamp;temperature;humidity
6948;DHT22;3513;47.664;9.162;2023-02-23T00:01:12;9.40;99.90
6948;DHT22;3513;47.664;9.162;2023-02-23T00:03:38;9.40;99.90
6948;DHT22;3513;47.664;9.162;2023-02-23T00:06:05;9.40;99.90
6948;DHT22;3513;47.664;9.162;2023-02-23T00:08:32;8.30;99.90
6948;DHT22;3513;47.664;9.162;2023-02-23T00:11:03;9.50;99.90
6948;DHT22;3513;47.664;9.162;2023-02-23T00:13:31;9.30;99.90
6948;DHT22;3513;47.664;9.162;2023-02-23T00:15:57;11.70;99.90
6948;DHT22;3513;47.664;9.162;2023-02-23T00:18:22;11.40;99.90
6948;DHT22;3513;47.664;9.162;2023-02-23T00:20:56;10.60;99.90
6948;DHT22;3513;47.664;9.162;2023-02-23T00:23:23;9.70;99.90
6948;DHT22;3513;47.664;9.162;2023-02-23T00:25:52;9.40;99.90
6948;DHT22;3513;47.664;9.162;2023-02-23T00:28:17;9.40;99.90
6948;DHT22;3513;47.664;9.162;2023-02-23T00:30:43;9.30;99.90
6948;DHT22;3513;47.664;9.162;2023-02-23T00:33:10;9.30;99.90
6948;DHT22;3513;47.664;9.162;2023-02-23T00:35:36;9.30;99.90
6948;DHT22;3513;47.664;9.162;2023-02-23T00:38:02;10.10;99.90
6948;DHT22;3513;47.664;9.162;2023-02-23T00:40:27;11.10;99.90
6948;DHT22;3513;47.664;9.162;2023-02-23T00:42:54;9.20;99.90
6948;DHT22;3513;47.664;9.162;2023-02-23T00:45:19;11.10;99.90
6948;DHT22;3513;47.664;9.162;2023-02-23T00:47:45;9.20;99.90
6948;DHT22;3513;47.664;9.162;2023-02-23T00:50:15;9.20;99.90
6948;DHT22;3513;47.664;9.162;2023-02-23T00:52:42;9.20;99.90
6948;DHT22;3513;47.664;9.162;2023-02-23T00:55:10;9.80;99.90
6948;DHT22;3513;47.664;9.162;2023-02-23T00:57:36;9.80;99.90
6948;DHT22;3513;47.664;9.162;2023-02-23T01:00:07;11.80;99.90
6948;DHT22;3513;47.664;9.162;2023-02-23T01:02:46;9.10;99.90
6948;DHT22;3513;47.664;9.162;2023-02-23T01:05:11;9.80;99.90
6948;DHT22;3513;47.664;9.162;2023-02-23T01:07:38;10.50;99.90
6948;DHT22;3513;47.664;9.162;2023-02-23T01:10:05;9.10;99.90
6948;DHT22;3513;47.664;9.162;2023-02-23T01:12:45;9.10;99.90
6948;DHT22;3513;47.664;9.162;2023-02-23T01:15:11;9.10;99.90
6948;DHT22;3513;47.664;9.162;2023-02-23T01:17:36;9.20;99.90
6948;DHT22;3513;47.664;9.162;2023-02-23T01:20:02;10.60;99.90
6948;DHT22;3513;47.664;9.162;2023-02-23T01:22:38;9.00;99.90
6948;DHT22;3513;47.664;9.162;2023-02-23T01:25:04;10.60;99.90
6948;DHT22;3513;47.664;9.162;2023-02-23T01:27:30;9.00;99.90
6948;DHT22;3513;47.664;9.162;2023-02-23T01:29:56;9.00;99.90
6948;DHT22;3513;47.664;9.162;2023-02-23T01:32:21;9.80;99.90
6948;DHT22;3513;47.664;9.162;2023-02-23T01:34:47;10.10;99.90
6948;DHT22;3513;47.664;9.162;2023-02-23T01:37:12;9.00;99.90
6948;DHT22;3513;47.664;9.162;2023-02-23T01:39:38;9.00;99.90
6948;DHT22;3513;47.664;9.162;2023-02-23T01:42:08;9.70;99.90
6948;DHT22;3513;47.664;9.162;2023-02-23T01:47:04;9.20;99.90
6948;DHT22;3513;47.664;9.162;2023-02-23T01:49:32;9.00;99.90
6948;DHT22;3513;47.664;9.162;2023-02-23T01:52:12;9.00;99.90
6948;DHT22;3513;47.664;9.162;2023-02-23T01:54:47;9.00;99.90
6948;DHT22;3513;47.664;9.162;2023-02-23T01:57:16;9.00;99.90
6948;DHT22;3513;47.664;9.162;2023-02-23T01:59:45;9.00;99.90
6948;DHT22;3513;47.664;9.162;2023-02-23T02:02:11;9.10;99.90
6948;DHT22;3513;47.664;9.162;2023-02-23T02:04:39;9.00;99.90
6948;DHT22;3513;47.664;9.162;2023-02-23T02:07:17;9.00;99.90
6948;DHT22;3513;47.664;9.162;2023-02-23T02:09:43;9.00;99.90
6948;DHT22;3513;47.664;9.162;2023-02-23T02:12:29;9.00;99.90
6948;DHT22;3513;47.664;9.162;2023-02-23T02:14:56;9.00;99.90
6948;DHT22;3513;47.664;9.162;2023-02-23T02:17:45;9.30;99.90
6948;DHT22;3513;47.664;9.162;2023-02-23T02:25:50;8.90;99.90
6948;DHT22;3513;47.664;9.162;2023-02-23T02:28:33;8.90;99.90
6948;DHT22;3513;47.664;9.162;2023-02-23T02:39:30;8.80;99.90
6948;DHT22;3513;47.664;9.162;2023-02-23T02:42:28;8.80;99.90
6948;DHT22;3513;47.664;9.162;2023-02-23T02:44:58;8.80;99.90
6948;DHT22;3513;47.664;9.162;2023-02-23T02:47:40;9.20;99.90
6948;DHT22;3513;47.664;9.162;2023-02-23T02:50:08;9.30;99.90
6948;DHT22;3513;47.664;9.162;2023-02-23T02:52:40;8.70;99.90
6948;DHT22;3513;47.664;9.162;2023-02-23T02:57:37;10.60;99.90
6948;DHT22;3513;47.664;9.162;2023-02-23T03:00:05;8.70;99.90
6948;DHT22;3513;47.664;9.162;2023-02-23T03:02:49;8.60;99.90
6948;DHT22;3513;47.664;9.162;2023-02-23T03:05:42;8.60;99.90
6948;DHT22;3513;47.664;9.162;2023-02-23T03:08:38;9.00;99.90
6948;DHT22;3513;47.664;9.162;2023-02-23T03:11:27;8.60;99.90
6948;DHT22;3513;47.664;9.162;2023-02-23T03:14:51;8.60;99.90
6948;DHT22;3513;47.664;9.162;2023-02-23T03:17:45;10.00;99.90
6948;DHT22;3513;47.664;9.162;2023-02-23T03:32:11;8.50;99.90
6948;DHT22;3513;47.664;9.162;2023-02-23T03:35:08;8.40;99.90
6948;DHT22;3513;47.664;9.162;2023-02-23T03:37:59;8.40;99.90
6948;DHT22;3513;47.664;9.162;2023-02-23T03:40:46;8.60;99.90
6948;DHT22;3513;47.664;9.162;2023-02-23T03:43:37;8.30;99.90
6948;DHT22;3513;47.664;9.162;2023-02-23T03:46:24;8.30;99.90
6948;DHT22;3513;47.664;9.162;2023-02-23T03:49:11;8.90;99.90
6948;DHT22;3513;47.664;9.162;2023-02-23T03:52:09;8.30;99.90
6948;DHT22;3513;47.664;9.162;2023-02-23T03:54:59;8.30;99.90
6948;DHT22;3513;47.664;9.162;2023-02-23T03:57:48;8.20;99.90
6948;DHT22;3513;47.664;9.162;2023-02-23T04:00:40;8.30;99.90
6948;DHT22;3513;47.664;9.162;2023-02-23T04:03:26;8.20;99.90
6948;DHT22;3513;47.664;9.162;2023-02-23T04:06:13;10.00;99.90
6948;DHT22;3513;47.664;9.162;2023-02-23T04:09:01;8.20;99.90
6948;DHT22;3513;47.664;9.162;2023-02-23T04:11:57;10.60;99.90
6948;DHT22;3513;47.664;9.162;2023-02-23T04:15:00;8.20;99.90
6948;DHT22;3513;47.664;9.162;2023-02-23T04:17:29;9.20;99.90
6948;DHT22;3513;47.664;9.162;2023-02-23T04:19:56;8.20;99.90
6948;DHT22;3513;47.664;9.162;2023-02-23T04:22:22;8.20;99.90
6948;DHT22;3513;47.664;9.162;2023-02-23T04:24:48;8.20;99.90
6948;DHT22;3513;47.664;9.162;2023-02-23T04:27:15;8.20;99.90
6948;DHT22;3513;47.664;9.162;2023-02-23T04:29:41;10.20;99.90
6948;DHT22;3513;47.664;9.162;2023-02-23T04:32:13;8.20;99.90
6948;DHT22;3513;47.664;9.162;2023-02-23T04:34:40;8.10;99.90
6948;DHT22;3513;47.664;9.162;2023-02-23T04:37:05;9.60;99.90
6948;DHT22;3513;47.664;9.162;2023-02-23T04:39:31;8.10;99.90
6948;DHT22;3513;47.664;9.162;2023-02-23T04:41:57;8.40;99.90
6948;DHT22;3513;47.664;9.162;2023-02-23T04:44:22;9.50;99.90
6948;DHT22;3513;47.664;9.162;2023-02-23T04:46:48;8.10;99.90
6948;DHT22;3513;47.664;9.162;2023-02-23T04:49:14;8.70;99.90
6948;DHT22;3513;47.664;9.162;2023-02-23T04:51:39;9.70;99.90
6948;DHT22;3513;47.664;9.162;2023-02-23T04:54:05;10.20;99.90
6948;DHT22;3513;47.664;9.162;2023-02-23T04:56:31;8.50;99.90
6948;DHT22;3513;47.664;9.162;2023-02-23T04:58:56;8.00;99.90
6948;DHT22;3513;47.664;9.162;2023-02-23T05:01:22;8.00;99.90
6948;DHT22;3513;47.664;9.162;2023-02-23T05:03:48;8.00;99.90
6948;DHT22;3513;47.664;9.162;2023-02-23T05:06:17;7.90;99.90
6948;DHT22;3513;47.664;9.162;2023-02-23T05:08:43;8.00;99.90
6948;DHT22;3513;47.664;9.162;2023-02-23T05:11:10;8.00;99.90
6948;DHT22;3513;47.664;9.162;2023-02-23T05:13:36;7.90;99.90
6948;DHT22;3513;47.664;9.162;2023-02-23T05:16:02;7.90;99.90
6948;DHT22;3513;47.664;9.162;2023-02-23T05:18:28;8.00;99.90
6948;DHT22;3513;47.664;9.162;2023-02-23T05:21:01;7.90;99.90
6948;DHT22;3513;47.664;9.162;2023-02-23T05:23:26;7.90;99.90
6948;DHT22;3513;47.664;9.162;2023-02-23T05:25:52;7.90;99.90
6948;DHT22;3513;47.664;9.162;2023-02-23T05:28:17;7.90;99.90
6948;DHT22;3513;47.664;9.162;2023-02-23T05:30:43;7.90;99.90
6948;DHT22;3513;47.664;9.162;2023-02-23T05:33:09;7.90;99.90
6948;DHT22;3513;47.664;9.162;2023-02-23T05:35:38;7.80;99.90
6948;DHT22;3513;47.664;9.162;2023-02-23T05:38:04;7.80;99.90
6948;DHT22;3513;47.664;9.162;2023-02-23T05:40:30;7.80;99.90
6948;DHT22;3513;47.664;9.162;2023-02-23T05:42:59;7.80;99.90
6948;DHT22;3513;47.664;9.162;2023-02-23T05:45:25;7.80;99.90
6948;DHT22;3513;47.664;9.162;2023-02-23T05:47:50;7.70;99.90
6948;DHT22;3513;47.664;9.162;2023-02-23T05:50:16;7.70;99.90
6948;DHT22;3513;47.664;9.162;2023-02-23T05:52:43;7.70;99.90
6948;DHT22;3513;47.664;9.162;2023-02-23T05:55:10;7.70;99.90
6948;DHT22;3513;47.664;9.162;2023-02-23T05:57:36;7.60;99.90
6948;DHT22;3513;47.664;9.162;2023-02-23T06:00:04;7.60;99.90
6948;DHT22;3513;47.664;9.162;2023-02-23T06:02:31;7.60;99.90
6948;DHT22;3513;47.664;9.162;2023-02-23T06:04:56;7.50;99.90
6948;DHT22;3513;47.664;9.162;2023-02-23T06:07:22;7.50;99.90
6948;DHT22;3513;47.664;9.162;2023-02-23T06:09:48;7.00;99.90
6948;DHT22;3513;47.664;9.162;2023-02-23T06:12:13;7.50;99.90
6948;DHT22;3513;47.664;9.162;2023-02-23T06:14:39;7.50;99.90
6948;DHT22;3513;47.664;9.162;2023-02-23T06:17:05;7.50;99.90
6948;DHT22;3513;47.664;9.162;2023-02-23T06:19:31;7.50;99.90
6948;DHT22;3513;47.664;9.162;2023-02-23T06:21:57;7.50;99.90
6948;DHT22;3513;47.664;9.162;2023-02-23T06:24:23;7.50;99.90
6948;DHT22;3513;47.664;9.162;2023-02-23T06:26:49;7.50;99.90
6948;DHT22;3513;47.664;9.162;2023-02-23T06:29:15;7.50;99.90
6948;DHT22;3513;47.664;9.162;2023-02-23T06:31:41;7.50;99.90
6948;DHT22;3513;47.664;9.162;2023-02-23T06:34:07;7.50;99.90
6948;DHT22;3513;47.664;9.162;2023-02-23T06:36:33;7.50;99.90
6948;DHT22;3513;47.664;9.162;2023-02-23T06:38:58;7.50;99.90
6948;DHT22;3513;47.664;9.162;2023-02-23T06:41:25;7.50;99.90
6948;DHT22;3513;47.664;9.162;2023-02-23T06:43:51;7.50;99.90
6948;DHT22;3513;47.664;9.162;2023-02-23T06:46:17;7.50;99.90
6948;DHT22;3513;47.664;9.162;2023-02-23T06:48:43;7.50;99.90
6948;DHT22;3513;47.664;9.162;2023-02-23T06:51:08;7.50;99.90
6948;DHT22;3513;47.664;9.162;2023-02-23T06:53:34;7.60;99.90
6948;DHT22;3513;47.664;9.162;2023-02-23T06:56:00;7.60;99.90
6948;DHT22;3513;47.664;9.162;2023-02-23T06:58:26;7.60;99.90
6948;DHT22;3513;47.664;9.162;2023-02-23T07:00:55;7.60;99.90
6948;DHT22;3513;47.664;9.162;2023-02-23T07:03:22;7.70;99.90
6948;DHT22;3513;47.664;9.162;2023-02-23T07:05:48;7.70;99.90
6948;DHT22;3513;47.664;9.162;2023-02-23T07:08:15;7.70;99.90
6948;DHT22;3513;47.664;9.162;2023-02-23T07:10:42;7.70;99.90
6948;DHT22;3513;47.664;9.162;2023-02-23T07:13:08;7.80;99.90
6948;DHT22;3513;47.664;9.162;2023-02-23T07:15:35;7.80;99.90
6948;DHT22;3513;47.664;9.162;2023-02-23T07:18:01;7.80;99.90
6948;DHT22;3513;47.664;9.162;2023-02-23T07:20:27;7.90;99.90
6948;DHT22;3513;47.664;9.162;2023-02-23T07:22:52;7.90;99.90
6948;DHT22;3513;47.664;9.162;2023-02-23T07:25:19;7.90;99.90
6948;DHT22;3513;47.664;9.162;2023-02-23T07:27:45;8.00;99.90
6948;DHT22;3513;47.664;9.162;2023-02-23T07:30:12;8.00;99.90
6948;DHT22;3513;47.664;9.162;2023-02-23T07:32:38;8.00;99.90
6948;DHT22;3513;47.664;9.162;2023-02-23T07:35:04;8.10;99.90
6948;DHT22;3513;47.664;9.162;2023-02-23T07:37:30;8.10;99.90
6948;DHT22;3513;47.664;9.162;2023-02-23T07:39:56;8.10;99.90
6948;DHT22;3513;47.664;9.162;2023-02-23T07:42:21;8.10;99.90
6948;DHT22;3513;47.664;9.162;2023-02-23T07:44:47;8.20;99.90
6948;DHT22;3513;47.664;9.162;2023-02-23T07:47:12;8.20;99.90
6948;DHT22;3513;47.664;9.162;2023-02-23T07:49:38;8.20;99.90
6948;DHT22;3513;47.664;9.162;2023-02-23T07:52:04;8.30;99.90
6948;DHT22;3513;47.664;9.162;2023-02-23T07:54:29;8.30;99.90
6948;DHT22;3513;47.664;9.162;2023-02-23T07:56:55;8.30;99.90
6948;DHT22;3513;47.664;9.162;2023-02-23T07:59:21;8.40;99.90
6948;DHT22;3513;47.664;9.162;2023-02-23T08:01:46;8.40;99.90
6948;DHT22;3513;47.664;9.162;2023-02-23T08:04:12;8.40;99.90
6948;DHT22;3513;47.664;9.162;2023-02-23T08:06:37;8.50;99.90
6948;DHT22;3513;47.664;9.162;2023-02-23T08:09:03;9.00;99.90
6948;DHT22;3513;47.664;9.162;2023-02-23T08:11:29;8.50;99.90
6948;DHT22;3513;47.664;9.162;2023-02-23T08:13:56;8.60;99.90
6948;DHT22;3513;47.664;9.162;2023-02-23T08:16:29;8.60;99.90
6948;DHT22;3513;47.664;9.162;2023-02-23T08:18:58;8.60;99.90
6948;DHT22;3513;47.664;9.162;2023-02-23T08:21:25;8.60;99.90
6948;DHT22;3513;47.664;9.162;2023-02-23T08:23:51;8.60;99.90
6948;DHT22;3513;47.664;9.162;2023-02-23T08:26:17;8.50;99.90
6948;DHT22;3513;47.664;9.162;2023-02-23T08:28:43;8.60;99.90
6948;DHT22;3513;47.664;9.162;2023-02-23T08:31:12;8.60;99.90
6948;DHT22;3513;47.664;9.162;2023-02-23T08:33:38;8.60;99.90
6948;DHT22;3513;47.664;9.162;2023-02-23T08:36:05;8.70;99.90
6948;DHT22;3513;47.664;9.162;2023-02-23T08:38:31;8.60;99.90
6948;DHT22;3513;47.664;9.162;2023-02-23T08:41:01;8.70;99.90
6948;DHT22;3513;47.664;9.162;2023-02-23T08:43:27;8.80;99.90
6948;DHT22;3513;47.664;9.162;2023-02-23T08:45:52;8.80;99.90
6948;DHT22;3513;47.664;9.162;2023-02-23T08:48:18;8.90;99.90
6948;DHT22;3513;47.664;9.162;2023-02-23T08:50:46;9.00;99.90
6948;DHT22;3513;47.664;9.162;2023-02-23T08:53:17;9.00;99.90
6948;DHT22;3513;47.664;9.162;2023-02-23T08:55:43;9.10;99.90
6948;DHT22;3513;47.664;9.162;2023-02-23T08:58:09;9.30;99.90
6948;DHT22;3513;47.664;9.162;2023-02-23T09:00:36;9.30;99.90
6948;DHT22;3513;47.664;9.162;2023-02-23T09:03:03;9.40;99.90
6948;DHT22;3513;47.664;9.162;2023-02-23T09:05:30;9.40;99.90
6948;DHT22;3513;47.664;9.162;2023-02-23T09:07:56;9.50;99.90
6948;DHT22;3513;47.664;9.162;2023-02-23T09:10:22;9.50;99.90
6948;DHT22;3513;47.664;9.162;2023-02-23T09:12:53;9.60;99.90
6948;DHT22;3513;47.664;9.162;2023-02-23T09:15:20;9.60;99.90
6948;DHT22;3513;47.664;9.162;2023-02-23T09:17:46;9.70;99.90
6948;DHT22;3513;47.664;9.162;2023-02-23T09:20:13;9.80;99.90
6948;DHT22;3513;47.664;9.162;2023-02-23T09:22:43;10.00;99.90
6948;DHT22;3513;47.664;9.162;2023-02-23T09:25:16;10.10;99.90
6948;DHT22;3513;47.664;9.162;2023-02-23T09:27:44;10.20;99.90
6948;DHT22;3513;47.664;9.162;2023-02-23T09:30:11;10.40;99.90
6948;DHT22;3513;47.664;9.162;2023-02-23T09:32:46;10.40;99.90
6948;DHT22;3513;47.664;9.162;2023-02-23T09:35:12;10.50;99.90
6948;DHT22;3513;47.664;9.162;2023-02-23T09:37:45;10.50;99.90
6948;DHT22;3513;47.664;9.162;2023-02-23T09:40:17;10.60;99.90
6948;DHT22;3513;47.664;9.162;2023-02-23T09:42:44;10.70;99.90
6948;DHT22;3513;47.664;9.162;2023-02-23T09:48:11;10.80;99.90
6948;DHT22;3513;47.664;9.162;2023-02-23T09:50:39;11.00;99.90
6948;DHT22;3513;47.664;9.162;2023-02-23T09:55:50;11.30;99.90
6948;DHT22;3513;47.664;9.162;2023-02-23T09:58:29;11.40;99.90
6948;DHT22;3513;47.664;9.162;2023-02-23T10:06:20;11.60;99.90
6948;DHT22;3513;47.664;9.162;2023-02-23T10:11:52;11.80;99.90
6948;DHT22;3513;47.664;9.162;2023-02-23T10:19:55;12.40;99.90
6948;DHT22;3513;47.664;9.162;2023-02-23T10:22:24;12.50;99.90
6948;DHT22;3513;47.664;9.162;2023-02-23T10:25:05;12.50;99.90
6948;DHT22;3513;47.664;9.162;2023-02-23T10:27:40;12.60;99.90
6948;DHT22;3513;47.664;9.162;2023-02-23T10:30:25;12.60;99.90
6948;DHT22;3513;47.664;9.162;2023-02-23T10:33:09;12.60;99.90
6948;DHT22;3513;47.664;9.162;2023-02-23T10:35:38;12.60;99.90
6948;DHT22;3513;47.664;9.162;2023-02-23T10:38:04;12.40;99.90
6948;DHT22;3513;47.664;9.162;2023-02-23T10:40:32;12.50;99.90
6948;DHT22;3513;47.664;9.162;2023-02-23T10:43:00;12.60;99.90
6948;DHT22;3513;47.664;9.162;2023-02-23T10:45:28;12.60;99.30
6948;DHT22;3513;47.664;9.162;2023-02-23T10:48:07;12.70;98.80
6948;DHT22;3513;47.664;9.162;2023-02-23T10:50:35;12.70;98.60
6948;DHT22;3513;47.664;9.162;2023-02-23T10:55:36;12.70;98.30
6948;DHT22;3513;47.664;9.162;2023-02-23T10:58:16;12.80;98.20
6948;DHT22;3513;47.664;9.162;2023-02-23T11:00:54;12.80;98.00
6948;DHT22;3513;47.664;9.162;2023-02-23T11:03:34;12.80;97.90
6948;DHT22;3513;47.664;9.162;2023-02-23T11:06:01;12.70;97.90
6948;DHT22;3513;47.664;9.162;2023-02-23T11:08:31;12.60;97.60
6948;DHT22;3513;47.664;9.162;2023-02-23T11:13:35;12.60;98.20
6948;DHT22;3513;47.664;9.162;2023-02-23T11:16:09;12.60;98.30
6948;DHT22;3513;47.664;9.162;2023-02-23T11:18:36;12.60;98.10
6948;DHT22;3513;47.664;9.162;2023-02-23T11:21:02;12.70;98.20
6948;DHT22;3513;47.664;9.162;2023-02-23T11:23:36;12.80;98.40
6948;DHT22;3513;47.664;9.162;2023-02-23T11:26:17;13.00;98.10
6948;DHT22;3513;47.664;9.162;2023-02-23T11:28:51;13.10;97.60
6948;DHT22;3513;47.664;9.162;2023-02-23T11:31:22;13.30;96.70
6948;DHT22;3513;47.664;9.162;2023-02-23T11:33:54;13.40;96.30
6948;DHT22;3513;47.664;9.162;2023-02-23T11:41:32;13.60;95.10
6948;DHT22;3513;47.664;9.162;2023-02-23T11:44:00;13.60;94.50
6948;DHT22;3513;47.664;9.162;2023-02-23T11:46:29;13.60;94.50
6948;DHT22;3513;47.664;9.162;2023-02-23T11:49:06;13.60;93.90
6948;DHT22;3513;47.664;9.162;2023-02-23T11:51:38;13.60;93.90
6948;DHT22;3513;47.664;9.162;2023-02-23T11:54:05;13.60;93.90
6948;DHT22;3513;47.664;9.162;2023-02-23T11:56:35;13.70;93.60
6948;DHT22;3513;47.664;9.162;2023-02-23T11:59:05;13.70;93.40
6948;DHT22;3513;47.664;9.162;2023-02-23T12:01:36;13.70;92.80
6948;DHT22;3513;47.664;9.162;2023-02-23T12:04:06;13.70;92.70
6948;DHT22;3513;47.664;9.162;2023-02-23T12:06:39;13.80;93.10
6948;DHT22;3513;47.664;9.162;2023-02-23T12:09:08;13.90;93.20
6948;DHT22;3513;47.664;9.162;2023-02-23T12:11:41;14.00;93.30
6948;DHT22;3513;47.664;9.162;2023-02-23T12:17:07;14.20;91.40
6948;DHT22;3513;47.664;9.162;2023-02-23T12:19:39;14.30;91.90
6948;DHT22;3513;47.664;9.162;2023-02-23T12:22:26;14.40;91.90
6948;DHT22;3513;47.664;9.162;2023-02-23T12:25:10;14.50;90.90
6948;DHT22;3513;47.664;9.162;2023-02-23T12:27:43;14.60;91.20
6948;DHT22;3513;47.664;9.162;2023-02-23T12:30:26;14.80;91.00
6948;DHT22;3513;47.664;9.162;2023-02-23T12:33:16;14.80;91.00
6948;DHT22;3513;47.664;9.162;2023-02-23T12:35:57;15.00;90.70
6948;DHT22;3513;47.664;9.162;2023-02-23T12:41:19;15.30;90.10
6948;DHT22;3513;47.664;9.162;2023-02-23T12:43:59;15.50;89.50
6948;DHT22;3513;47.664;9.162;2023-02-23T12:46:34;15.60;86.40
6948;DHT22;3513;47.664;9.162;2023-02-23T12:51:40;15.50;84.90
6948;DHT22;3513;47.664;9.162;2023-02-23T12:54:11;15.50;86.10
6948;DHT22;3513;47.664;9.162;2023-02-23T12:56:53;15.60;86.40
6948;DHT22;3513;47.664;9.162;2023-02-23T13:02:03;15.60;86.30
6948;DHT22;3513;47.664;9.162;2023-02-23T13:07:05;15.70;84.90
6948;DHT22;3513;47.664;9.162;2023-02-23T13:17:57;16.70;81.00
6948;DHT22;3513;47.664;9.162;2023-02-23T13:20:49;17.20;80.50
6948;DHT22;3513;47.664;9.162;2023-02-23T13:31:30;17.30;74.70
6948;DHT22;3513;47.664;9.162;2023-02-23T13:33:58;17.10;75.60
6948;DHT22;3513;47.664;9.162;2023-02-23T13:36:27;16.90;75.90
6948;DHT22;3513;47.664;9.162;2023-02-23T13:39:21;16.60;76.60
6948;DHT22;3513;47.664;9.162;2023-02-23T13:52:33;19.30;69.10
6948;DHT22;3513;47.664;9.162;2023-02-23T13:58:05;20.10;65.00
6948;DHT22;3513;47.664;9.162;2023-02-23T14:00:35;20.10;64.10
6948;DHT22;3513;47.664;9.162;2023-02-23T14:03:04;20.10;64.00
6948;DHT22;3513;47.664;9.162;2023-02-23T14:05:30;20.30;63.10
6948;DHT22;3513;47.664;9.162;2023-02-23T14:08:06;20.50;62.20
6948;DHT22;3513;47.664;9.162;2023-02-23T14:10:42;21.00;60.90
6948;DHT22;3513;47.664;9.162;2023-02-23T14:26:15;22.20;54.60
6948;DHT22;3513;47.664;9.162;2023-02-23T14:44:05;23.00;52.10
6948;DHT22;3513;47.664;9.162;2023-02-23T14:46:32;23.20;50.80
6948;DHT22;3513;47.664;9.162;2023-02-23T14:49:00;23.30;51.30
6948;DHT22;3513;47.664;9.162;2023-02-23T14:51:39;23.50;50.50
6948;DHT22;3513;47.664;9.162;2023-02-23T14:54:26;23.60;50.20
6948;DHT22;3513;47.664;9.162;2023-02-23T14:56:54;23.50;49.00
6948;DHT22;3513;47.664;9.162;2023-02-23T14:59:25;23.40;49.00
6948;DHT22;3513;47.664;9.162;2023-02-23T15:01:52;23.20;49.80
6948;DHT22;3513;47.664;9.162;2023-02-23T15:04:21;23.30;49.80
6948;DHT22;3513;47.664;9.162;2023-02-23T15:06:48;23.40;49.00
6948;DHT22;3513;47.664;9.162;2023-02-23T15:09:21;23.60;48.80
6948;DHT22;3513;47.664;9.162;2023-02-23T15:11:49;23.70;48.30
6948;DHT22;3513;47.664;9.162;2023-02-23T15:14:19;23.80;47.90
6948;DHT22;3513;47.664;9.162;2023-02-23T15:16:45;23.80;48.00
6948;DHT22;3513;47.664;9.162;2023-02-23T15:19:16;23.80;47.30
6948;DHT22;3513;47.664;9.162;2023-02-23T15:21:52;23.70;47.40
6948;DHT22;3513;47.664;9.162;2023-02-23T15:24:22;23.60;47.00
6948;DHT22;3513;47.664;9.162;2023-02-23T15:26:50;23.40;47.50
6948;DHT22;3513;47.664;9.162;2023-02-23T15:29:22;23.20;47.80
6948;DHT22;3513;47.664;9.162;2023-02-23T15:31:50;23.10;48.10
6948;DHT22;3513;47.664;9.162;2023-02-23T15:34:28;23.20;48.10
6948;DHT22;3513;47.664;9.162;2023-02-23T15:37:43;23.30;48.20
6948;DHT22;3513;47.664;9.162;2023-02-23T15:40:12;23.30;47.40
6948;DHT22;3513;47.664;9.162;2023-02-23T15:42:42;23.50;47.30
6948;DHT22;3513;47.664;9.162;2023-02-23T15:47:59;23.30;46.90
6948;DHT22;3513;47.664;9.162;2023-02-23T15:50:29;23.40;46.40
6948;DHT22;3513;47.664;9.162;2023-02-23T15:53:02;23.40;46.90
6948;DHT22;3513;47.664;9.162;2023-02-23T15:55:34;23.50;45.90
6948;DHT22;3513;47.664;9.162;2023-02-23T15:58:23;23.50;45.20
6948;DHT22;3513;47.664;9.162;2023-02-23T16:00:57;23.40;44.70
6948;DHT22;3513;47.664;9.162;2023-02-23T16:03:37;23.30;44.50
6948;DHT22;3513;47.664;9.162;2023-02-23T16:06:36;23.20;44.50
6948;DHT22;3513;47.664;9.162;2023-02-23T16:12:03;22.60;45.20
6948;DHT22;3513;47.664;9.162;2023-02-23T16:17:43;21.90;46.00
6948;DHT22;3513;47.664;9.162;2023-02-23T16:20:40;21.50;46.90
6948;DHT22;3513;47.664;9.162;2023-02-23T16:23:25;21.10;47.80
6948;DHT22;3513;47.664;9.162;2023-02-23T16:25:55;20.70;49.00
6948;DHT22;3513;47.664;9.162;2023-02-23T16:28:28;20.30;50.30
6948;DHT22;3513;47.664;9.162;2023-02-23T16:31:00;19.90;50.60
6948;DHT22;3513;47.664;9.162;2023-02-23T16:36:54;19.10;52.20
6948;DHT22;3513;47.664;9.162;2023-02-23T16:41:24;18.10;54.20
6948;DHT22;3513;47.664;9.162;2023-02-23T16:43:52;17.70;55.10
6948;DHT22;3513;47.664;9.162;2023-02-23T16:46:19;17.30;56.10
6948;DHT22;3513;47.664;9.162;2023-02-23T16:48:54;16.90;56.90
6948;DHT22;3513;47.664;9.162;2023-02-23T16:51:35;16.50;58.10
6948;DHT22;3513;47.664;9.162;2023-02-23T16:54:00;16.10;58.90
6948;DHT22;3513;47.664;9.162;2023-02-23T16:56:28;15.70;59.80
6948;DHT22;3513;47.664;9.162;2023-02-23T16:58:59;15.40;60.90
6948;DHT22;3513;47.664;9.162;2023-02-23T17:01:25;15.10;62.10
6948;DHT22;3513;47.664;9.162;2023-02-23T17:03:51;14.90;62.90
6948;DHT22;3513;47.664;9.162;2023-02-23T17:06:18;14.70;64.10
6948;DHT22;3513;47.664;9.162;2023-02-23T17:08:44;14.50;65.20
6948;DHT22;3513;47.664;9.162;2023-02-23T17:11:10;14.30;65.40
6948;DHT22;3513;47.664;9.162;2023-02-23T17:13:35;14.10;66.20
6948;DHT22;3513;47.664;9.162;2023-02-23T17:16:04;14.00;67.30
6948;DHT22;3513;47.664;9.162;2023-02-23T17:18:34;13.80;68.30
6948;DHT22;3513;47.664;9.162;2023-02-23T17:21:07;13.50;69.90
6948;DHT22;3513;47.664;9.162;2023-02-23T17:23:35;13.30;70.10
6948;DHT22;3513;47.664;9.162;2023-02-23T17:26:13;13.00;71.10
6948;DHT22;3513;47.664;9.162;2023-02-23T17:28:39;12.80;72.80
6948;DHT22;3513;47.664;9.162;2023-02-23T17:31:05;12.60;73.60
6948;DHT22;3513;47.664;9.162;2023-02-23T17:33:32;12.60;75.10
6948;DHT22;3513;47.664;9.162;2023-02-23T17:36:05;12.40;76.20
6948;DHT22;3513;47.664;9.162;2023-02-23T17:38:31;12.30;77.50
6948;DHT22;3513;47.664;9.162;2023-02-23T17:41:06;12.20;78.70
6948;DHT22;3513;47.664;9.162;2023-02-23T17:43:32;12.00;79.40
6948;DHT22;3513;47.664;9.162;2023-02-23T17:45:58;11.90;80.50
6948;DHT22;3513;47.664;9.162;2023-02-23T17:48:25;11.80;81.70
6948;DHT22;3513;47.664;9.162;2023-02-23T17:50:56;12.00;83.70
6948;DHT22;3513;47.664;9.162;2023-02-23T17:53:23;11.70;83.20
6948;DHT22;3513;47.664;9.162;2023-02-23T17:55:48;11.50;83.60
6948;DHT22;3513;47.664;9.162;2023-02-23T17:58:15;11.40;84.80
6948;DHT22;3513;47.664;9.162;2023-02-23T18:00:41;11.20;86.00
6948;DHT22;3513;47.664;9.162;2023-02-23T18:03:07;10.90;86.90
6948;DHT22;3513;47.664;9.162;2023-02-23T18:05:33;10.90;88.20
6948;DHT22;3513;47.664;9.162;2023-02-23T18:07:58;10.70;89.60
6948;DHT22;3513;47.664;9.162;2023-02-23T18:10:24;11.40;90.80
6948;DHT22;3513;47.664;9.162;2023-02-23T18:12:51;10.60;90.80
6948;DHT22;3513;47.664;9.162;2023-02-23T18:15:17;10.50;91.50
6948;DHT22;3513;47.664;9.162;2023-02-23T18:17:45;10.50;91.60
6948;DHT22;3513;47.664;9.162;2023-02-23T18:20:11;10.40;91.70
6948;DHT22;3513;47.664;9.162;2023-02-23T18:22:39;10.30;92.10
6948;DHT22;3513;47.664;9.162;2023-02-23T18:25:06;10.00;92.30
6948;DHT22;3513;47.664;9.162;2023-02-23T18:27:32;9.80;93.60
6948;DHT22;3513;47.664;9.162;2023-02-23T18:29:57;9.70;94.40
6948;DHT22;3513;47.664;9.162;2023-02-23T18:32:23;9.60;95.00
6948;DHT22;3513;47.664;9.162;2023-02-23T18:34:49;9.50;95.50
6948;DHT22;3513;47.664;9.162;2023-02-23T18:37:15;9.60;96.00
6948;DHT22;3513;47.664;9.162;2023-02-23T18:39:45;9.40;96.20
6948;DHT22;3513;47.664;9.162;2023-02-23T18:42:15;9.40;96.70
6948;DHT22;3513;47.664;9.162;2023-02-23T18:44:41;9.40;97.10
6948;DHT22;3513;47.664;9.162;2023-02-23T18:47:06;9.40;97.10
6948;DHT22;3513;47.664;9.162;2023-02-23T18:49:32;9.60;97.00
6948;DHT22;3513;47.664;9.162;2023-02-23T18:51:57;9.40;96.50
6948;DHT22;3513;47.664;9.162;2023-02-23T18:54:25;9.10;96.60
6948;DHT22;3513;47.664;9.162;2023-02-23T18:56:52;9.00;97.20
6948;DHT22;3513;47.664;9.162;2023-02-23T18:59:19;8.80;97.70